createdAt,value
2023-07-24T00:00:55.449Z,7.03
2023-07-24T00:01:52.620Z,7.32
2023-07-24T00:02:49.750Z,7.18
2023-07-24T00:03:47.211Z,7.95
2023-07-24T00:04:44.295Z,7.60
2023-07-24T00:05:41.420Z,7.28
2023-07-24T00:06:38.741Z,7.72
2023-07-24T00:07:35.957Z,7.45
2023-07-24T00:08:33.079Z,7.30
2023-07-24T00:09:30.767Z,7.70
2023-07-24T00:10:27.960Z,7.43
2023-07-24T00:11:25.173Z,7.78
2023-07-24T00:12:22.959Z,7.30
2023-07-24T00:13:20.144Z,7.28
2023-07-24T00:14:17.760Z,7.43
2023-07-24T00:15:14.787Z,7.82
2023-07-24T00:16:12.158Z,7.87
2023-07-24T00:17:09.323Z,7.70
2023-07-24T00:18:06.452Z,7.87
2023-07-24T00:19:03.670Z,7.05
2023-07-24T00:20:00.706Z,7.37
2023-07-24T00:20:57.487Z,7.28
2023-07-24T00:21:54.673Z,7.12
2023-07-24T00:22:52.469Z,7.50
2023-07-24T00:23:49.631Z,7.28
2023-07-24T00:24:46.748Z,8.18
2023-07-24T00:25:43.820Z,7.35
2023-07-24T00:26:41.112Z,7.75
2023-07-24T00:27:38.148Z,7.60
2023-07-24T00:28:35.236Z,7.65
2023-07-24T00:29:32.362Z,7.87
2023-07-24T00:30:29.318Z,7.00
2023-07-24T00:31:26.582Z,7.82
2023-07-24T00:32:23.765Z,7.43
2023-07-24T00:33:20.817Z,7.97
2023-07-24T00:34:17.777Z,7.65
2023-07-24T00:35:14.780Z,8.13
2023-07-24T00:36:11.810Z,8.23
2023-07-24T00:37:09.073Z,8.23
2023-07-24T00:38:06.261Z,7.62
2023-07-24T00:39:03.406Z,7.95
2023-07-24T00:40:00.553Z,7.85
2023-07-24T00:40:57.838Z,7.43
2023-07-24T00:41:54.831Z,8.13
2023-07-24T00:42:51.928Z,8.10
2023-07-24T00:43:49.070Z,7.80
2023-07-24T00:44:46.296Z,8.15
2023-07-24T00:45:43.847Z,7.78
2023-07-24T00:46:41.285Z,7.70
2023-07-24T00:47:38.478Z,8.23
2023-07-24T00:48:35.562Z,8.50
2023-07-24T00:49:32.725Z,7.90
2023-07-24T00:50:30.548Z,7.80
2023-07-24T00:51:31.199Z,7.72
2023-07-24T00:53:25.108Z,8.05
2023-07-24T00:54:24.026Z,7.68
2023-07-24T00:55:21.160Z,7.60
2023-07-24T00:56:18.162Z,8.02
2023-07-24T00:57:15.401Z,7.80
2023-07-24T00:58:13.337Z,8.27
2023-07-24T00:59:10.424Z,7.68
2023-07-24T01:00:08.703Z,7.80
2023-07-24T01:01:06.538Z,7.55
2023-07-24T01:02:03.644Z,7.70
2023-07-24T01:03:01.352Z,7.90
2023-07-24T01:03:58.628Z,7.35
2023-07-24T01:04:55.694Z,7.35
2023-07-24T01:05:52.776Z,8.13
2023-07-24T01:06:49.885Z,7.32
2023-07-24T01:07:46.963Z,8.30
2023-07-24T01:08:44.100Z,7.87
2023-07-24T01:09:41.208Z,7.82
2023-07-24T01:10:38.315Z,8.25
2023-07-24T01:11:41.323Z,7.70
2023-07-24T01:12:49.161Z,7.80
2023-07-24T01:14:13.446Z,7.85
2023-07-24T01:15:17.966Z,7.28
2023-07-24T01:16:18.253Z,7.97
2023-07-24T01:17:23.688Z,7.90
2023-07-24T01:18:24.246Z,7.90
2023-07-24T01:19:30.143Z,7.75
2023-07-24T01:20:28.377Z,7.32
2023-07-24T01:21:46.736Z,7.32
2023-07-24T01:23:07.038Z,7.65
2023-07-24T01:24:24.368Z,7.55
2023-07-24T01:25:38.223Z,8.05
2023-07-24T01:26:35.513Z,7.60
2023-07-24T01:27:32.648Z,7.85
2023-07-24T01:28:29.835Z,7.78
2023-07-24T01:29:26.915Z,8.32
2023-07-24T01:30:24.101Z,8.07
2023-07-24T01:31:21.193Z,7.80
2023-07-24T01:32:18.886Z,7.87
2023-07-24T01:33:16.106Z,7.50
2023-07-24T01:34:13.232Z,8.32
2023-07-24T01:35:10.397Z,7.80
2023-07-24T01:36:08.344Z,7.70
2023-07-24T01:37:05.587Z,7.93
2023-07-24T01:38:04.700Z,7.35
2023-07-24T01:39:02.194Z,7.95
2023-07-24T01:39:59.853Z,8.35
2023-07-24T01:40:57.731Z,7.43
2023-07-24T01:41:55.588Z,8.00
2023-07-24T01:42:53.394Z,7.45
2023-07-24T01:43:50.475Z,8.10
2023-07-24T01:44:55.911Z,8.43
2023-07-24T01:45:52.963Z,7.78
2023-07-24T01:46:50.082Z,8.27
2023-07-24T01:47:47.268Z,7.62
2023-07-24T01:48:44.409Z,7.30
2023-07-24T01:49:41.576Z,7.15
2023-07-24T01:50:38.587Z,7.12
2023-07-24T01:51:35.690Z,7.87
2023-07-24T01:52:32.815Z,7.90
2023-07-24T01:53:29.961Z,8.82
2023-07-24T01:54:26.922Z,8.02
2023-07-24T01:55:23.995Z,7.95
2023-07-24T01:56:21.182Z,8.70
2023-07-24T01:57:18.265Z,7.93
2023-07-24T01:58:15.365Z,7.97
2023-07-24T01:59:12.465Z,8.15
2023-07-24T02:00:10.246Z,8.32
2023-07-24T02:01:07.268Z,7.40
2023-07-24T02:02:04.573Z,9.13
2023-07-24T02:03:01.891Z,8.07
2023-07-24T02:03:59.045Z,8.10
2023-07-24T02:04:56.110Z,8.10
2023-07-24T02:05:53.302Z,8.43
2023-07-24T02:06:51.177Z,8.43
2023-07-24T02:07:48.278Z,8.02
2023-07-24T02:08:50.162Z,8.38
2023-07-24T02:09:47.258Z,8.02
2023-07-24T02:10:44.276Z,8.40
2023-07-24T02:11:41.407Z,7.60
2023-07-24T02:12:38.458Z,7.45
2023-07-24T02:13:35.493Z,7.55
2023-07-24T02:14:32.555Z,8.00
2023-07-24T02:15:29.546Z,8.23
2023-07-24T02:16:26.642Z,7.87
2023-07-24T02:17:24.920Z,8.80
2023-07-24T02:18:21.916Z,7.53
2023-07-24T02:19:18.915Z,8.05
2023-07-24T02:20:16.025Z,8.25
2023-07-24T02:21:13.045Z,7.95
2023-07-24T02:22:10.202Z,8.10
2023-07-24T02:23:09.236Z,8.38
2023-07-24T02:24:06.401Z,8.15
2023-07-24T02:25:03.465Z,8.32
2023-07-24T02:26:00.575Z,8.32
2023-07-24T02:26:57.578Z,8.52
2023-07-24T02:27:54.658Z,7.75
2023-07-24T02:28:51.766Z,8.23
2023-07-24T02:29:48.823Z,8.30
2023-07-24T02:30:48.125Z,7.30
2023-07-24T02:31:45.229Z,8.35
2023-07-24T02:32:42.388Z,8.05
2023-07-24T02:33:39.303Z,8.20
2023-07-24T02:34:36.224Z,8.40
2023-07-24T02:35:33.231Z,8.25
2023-07-24T02:36:30.566Z,8.00
2023-07-24T02:37:27.803Z,8.35
2023-07-24T02:38:24.735Z,7.65
2023-07-24T02:39:22.094Z,8.57
2023-07-24T02:40:19.172Z,8.18
2023-07-24T02:41:16.165Z,8.38
2023-07-24T02:42:13.218Z,8.25
2023-07-24T02:43:10.267Z,8.20
2023-07-24T02:44:07.264Z,8.23
2023-07-24T02:45:05.107Z,8.38
2023-07-24T02:46:03.605Z,8.68
2023-07-24T02:47:00.641Z,8.52
2023-07-24T02:47:57.752Z,8.00
2023-07-24T02:48:55.604Z,8.27
2023-07-24T02:49:52.637Z,8.57
2023-07-24T02:50:50.305Z,7.87
2023-07-24T02:51:47.305Z,8.38
2023-07-24T02:52:44.249Z,8.10
2023-07-24T02:53:41.205Z,8.32
2023-07-24T02:54:38.254Z,8.38
2023-07-24T02:55:35.314Z,7.70
2023-07-24T02:56:32.518Z,9.00
2023-07-24T02:57:29.680Z,8.18
2023-07-24T02:58:26.663Z,8.88
2023-07-24T02:59:23.612Z,8.48
2023-07-24T03:00:20.747Z,8.68
2023-07-24T03:01:17.983Z,8.68
2023-07-24T03:02:15.162Z,7.90
2023-07-24T03:03:12.404Z,8.73
2023-07-24T03:04:09.628Z,8.55
2023-07-24T03:05:06.893Z,8.02
2023-07-24T03:06:04.050Z,8.48
2023-07-24T03:07:01.185Z,8.82
2023-07-24T03:07:58.201Z,8.98
2023-07-24T03:08:55.293Z,8.88
2023-07-24T03:09:52.428Z,9.07
2023-07-24T03:10:49.475Z,8.77
2023-07-24T03:11:46.491Z,8.50
2023-07-24T03:12:43.499Z,9.18
2023-07-24T03:13:42.343Z,8.55
2023-07-24T03:14:39.300Z,8.13
2023-07-24T03:15:36.187Z,8.90
2023-07-24T03:16:33.334Z,8.75
2023-07-24T03:17:30.372Z,8.52
2023-07-24T03:18:27.546Z,8.40
2023-07-24T03:19:24.584Z,8.00
2023-07-24T03:20:22.362Z,9.68
2023-07-24T03:21:20.740Z,8.57
2023-07-24T03:22:17.816Z,9.05
2023-07-24T03:23:14.963Z,8.80
2023-07-24T03:24:12.022Z,8.13
2023-07-24T03:25:09.575Z,8.98
2023-07-24T03:26:06.552Z,8.25
2023-07-24T03:27:03.713Z,8.13
2023-07-24T03:28:00.626Z,8.70
2023-07-24T03:28:57.589Z,8.57
2023-07-24T03:29:54.589Z,8.10
2023-07-24T03:30:51.648Z,8.48
2023-07-24T03:31:48.787Z,8.63
2023-07-24T03:32:45.896Z,8.30
2023-07-24T03:33:42.914Z,8.77
2023-07-24T03:34:40.506Z,8.50
2023-07-24T03:35:37.607Z,8.80
2023-07-24T03:36:35.273Z,8.48
2023-07-24T03:37:32.911Z,8.60
2023-07-24T03:38:29.975Z,7.78
2023-07-24T03:39:26.911Z,8.70
2023-07-24T03:40:23.960Z,8.45
2023-07-24T03:41:21.702Z,8.13
2023-07-24T03:42:38.876Z,8.55
2023-07-24T03:43:35.945Z,9.07
2023-07-24T03:44:32.987Z,9.15
2023-07-24T03:45:30.098Z,8.77
2023-07-24T03:46:27.358Z,8.18
2023-07-24T03:47:25.561Z,8.05
2023-07-24T03:48:22.632Z,8.88
2023-07-24T03:49:19.594Z,8.63
2023-07-24T03:50:16.642Z,8.70
2023-07-24T03:51:13.684Z,8.02
2023-07-24T03:52:10.738Z,8.57
2023-07-24T03:53:07.916Z,8.18
2023-07-24T03:54:05.013Z,8.93
2023-07-24T03:55:03.299Z,8.45
2023-07-24T03:56:00.458Z,8.43
2023-07-24T03:56:57.382Z,8.75
2023-07-24T03:57:54.404Z,8.75
2023-07-24T03:58:51.415Z,8.90
2023-07-24T03:59:48.377Z,8.82
2023-07-24T04:00:45.503Z,9.35
2023-07-24T04:01:42.491Z,8.35
2023-07-24T04:02:41.021Z,8.50
2023-07-24T04:03:38.109Z,8.65
2023-07-24T04:04:35.254Z,8.00
2023-07-24T04:05:32.301Z,8.43
2023-07-24T04:06:29.765Z,8.52
2023-07-24T04:07:28.536Z,8.32
2023-07-24T04:08:25.602Z,8.65
2023-07-24T04:09:22.551Z,8.02
2023-07-24T04:10:19.513Z,8.82
2023-07-24T04:11:16.478Z,8.38
2023-07-24T04:12:14.012Z,8.35
2023-07-24T04:13:11.007Z,8.57
2023-07-24T04:14:08.156Z,8.48
2023-07-24T04:15:05.666Z,8.05
2023-07-24T04:16:02.725Z,9.18
2023-07-24T04:16:59.862Z,7.95
2023-07-24T04:17:56.939Z,8.13
2023-07-24T04:18:53.973Z,8.27
2023-07-24T04:19:51.070Z,8.05
2023-07-24T04:20:48.174Z,8.10
2023-07-24T04:21:45.194Z,8.00
2023-07-24T04:22:42.624Z,8.25
2023-07-24T04:23:39.747Z,8.40
2023-07-24T04:24:37.040Z,8.55
2023-07-24T04:25:34.229Z,8.60
2023-07-24T04:26:31.500Z,8.35
2023-07-24T04:27:28.897Z,7.97
2023-07-24T04:28:25.983Z,8.18
2023-07-24T04:29:25.164Z,8.13
2023-07-24T04:30:22.234Z,8.10
2023-07-24T04:31:19.210Z,8.35
2023-07-24T04:32:16.302Z,8.20
2023-07-24T04:33:13.357Z,8.85
2023-07-24T04:34:10.378Z,7.55
2023-07-24T04:35:08.310Z,7.85
2023-07-24T04:36:05.686Z,8.30
2023-07-24T04:37:02.701Z,7.93
2023-07-24T04:37:59.863Z,8.32
2023-07-24T04:38:56.796Z,7.85
2023-07-24T04:39:53.804Z,8.00
2023-07-24T04:40:50.846Z,7.70
2023-07-24T04:41:47.951Z,7.85
2023-07-24T04:42:44.987Z,7.80
2023-07-24T04:43:41.903Z,8.15
2023-07-24T04:44:38.934Z,8.05
2023-07-24T04:45:36.045Z,8.05
2023-07-24T04:46:33.459Z,7.87
2023-07-24T04:47:30.680Z,8.63
2023-07-24T04:48:27.731Z,7.55
2023-07-24T04:49:25.788Z,7.32
2023-07-24T04:50:22.764Z,8.13
2023-07-24T04:51:20.067Z,7.93
2023-07-24T04:52:17.174Z,8.38
2023-07-24T04:53:14.150Z,7.97
2023-07-24T04:54:11.139Z,7.25
2023-07-24T04:55:08.608Z,7.87
2023-07-24T04:56:05.851Z,7.93
2023-07-24T04:57:02.980Z,7.93
2023-07-24T04:58:00.063Z,8.25
2023-07-24T04:58:57.042Z,8.25
2023-07-24T04:59:54.104Z,7.65
2023-07-24T05:00:51.051Z,7.87
2023-07-24T05:01:48.145Z,9.30
2023-07-24T05:02:45.167Z,8.38
2023-07-24T05:03:42.260Z,7.20
2023-07-24T05:04:39.400Z,7.65
2023-07-24T05:05:36.419Z,7.97
2023-07-24T05:06:33.553Z,7.87
2023-07-24T05:07:30.593Z,7.90
2023-07-24T05:08:27.610Z,7.90
2023-07-24T05:09:24.583Z,8.05
2023-07-24T05:10:21.693Z,7.57
2023-07-24T05:11:18.734Z,7.93
2023-07-24T05:12:15.773Z,7.90
2023-07-24T05:13:13.892Z,8.00
2023-07-24T05:14:11.062Z,8.02
2023-07-24T05:15:08.854Z,7.68
2023-07-24T05:16:06.007Z,7.57
2023-07-24T05:17:03.161Z,7.72
2023-07-24T05:18:00.328Z,8.10
2023-07-24T05:18:57.440Z,7.65
2023-07-24T05:19:54.503Z,8.30
2023-07-24T05:20:54.479Z,8.15
2023-07-24T05:21:51.472Z,7.93
2023-07-24T05:22:48.592Z,8.00
2023-07-24T05:23:45.645Z,8.13
2023-07-24T05:24:42.765Z,7.78
2023-07-24T05:25:39.805Z,7.65
2023-07-24T05:26:37.006Z,7.55
2023-07-24T05:27:34.216Z,7.90
2023-07-24T05:28:32.555Z,7.68
2023-07-24T05:29:29.590Z,7.72
2023-07-24T05:30:26.629Z,8.18
2023-07-24T05:31:23.690Z,7.40
2023-07-24T05:32:20.753Z,7.70
2023-07-24T05:33:17.754Z,7.80
2023-07-24T05:34:14.756Z,8.13
2023-07-24T05:35:11.744Z,7.97
2023-07-24T05:36:08.758Z,7.95
2023-07-24T05:37:06.849Z,7.72
2023-07-24T05:38:03.997Z,7.97
2023-07-24T05:39:01.106Z,7.60
2023-07-24T05:39:58.172Z,7.70
2023-07-24T05:40:58.354Z,7.90
2023-07-24T05:41:55.460Z,7.43
2023-07-24T05:42:52.462Z,7.30
2023-07-24T05:43:49.511Z,7.28
2023-07-24T05:44:46.510Z,7.70
2023-07-24T05:45:43.565Z,7.55
2023-07-24T05:46:40.592Z,8.00
2023-07-24T05:47:37.833Z,7.72
2023-07-24T05:48:34.998Z,8.70
2023-07-24T05:49:32.135Z,7.47
2023-07-24T05:50:29.182Z,8.00
2023-07-24T05:51:26.120Z,7.25
2023-07-24T05:52:23.131Z,7.37
2023-07-24T05:53:22.773Z,7.62
2023-07-24T05:54:19.709Z,7.53
2023-07-24T05:55:16.863Z,7.57
2023-07-24T05:56:13.880Z,7.40
2023-07-24T05:57:10.856Z,7.40
2023-07-24T05:58:07.833Z,7.62
2023-07-24T05:59:04.842Z,7.82
2023-07-24T06:00:01.853Z,7.65
2023-07-24T06:00:58.900Z,7.82
2023-07-24T06:01:55.952Z,7.90
2023-07-24T06:02:54.471Z,8.10
2023-07-24T06:03:53.652Z,7.87
2023-07-24T06:04:50.630Z,8.68
2023-07-24T06:05:47.992Z,8.80
2023-07-24T06:06:45.052Z,7.72
2023-07-24T06:07:42.085Z,7.95
2023-07-24T06:08:39.129Z,8.30
2023-07-24T06:09:36.289Z,7.62
2023-07-24T06:10:33.253Z,8.00
2023-07-24T06:11:30.439Z,8.02
2023-07-24T06:12:27.410Z,7.87
2023-07-24T06:13:24.423Z,8.18
2023-07-24T06:14:21.380Z,7.75
2023-07-24T06:15:18.402Z,7.80
2023-07-24T06:16:15.544Z,8.05
2023-07-24T06:17:12.563Z,7.10
2023-07-24T06:18:10.127Z,8.27
2023-07-24T06:19:07.334Z,7.82
2023-07-24T06:20:04.682Z,8.32
2023-07-24T06:21:01.644Z,7.72
2023-07-24T06:21:58.678Z,8.00
2023-07-24T06:22:55.727Z,7.45
2023-07-24T06:23:53.126Z,8.05
2023-07-24T06:24:50.594Z,8.05
2023-07-24T06:25:47.630Z,8.18
2023-07-24T06:26:44.582Z,7.57
2023-07-24T06:27:41.523Z,8.25
2023-07-24T06:28:38.572Z,7.37
2023-07-24T06:29:35.777Z,8.50
2023-07-24T06:30:33.382Z,7.70
2023-07-24T06:31:30.460Z,7.95
2023-07-24T06:32:27.532Z,7.78
2023-07-24T06:33:24.573Z,8.45
2023-07-24T06:34:21.509Z,7.90
2023-07-24T06:35:18.738Z,7.72
2023-07-24T06:36:15.956Z,8.10
2023-07-24T06:37:22.152Z,7.90
2023-07-24T06:38:22.692Z,8.57
2023-07-24T06:39:20.326Z,7.82
2023-07-24T06:40:17.432Z,8.05
2023-07-24T06:41:16.882Z,8.13
2023-07-24T06:42:13.973Z,7.68
2023-07-24T06:43:10.928Z,7.82
2023-07-24T06:44:07.906Z,8.20
2023-07-24T06:45:08.360Z,8.07
2023-07-24T06:46:06.060Z,8.13
2023-07-24T06:47:03.243Z,7.72
2023-07-24T06:48:00.272Z,7.57
2023-07-24T06:48:57.222Z,7.97
2023-07-24T06:49:54.184Z,8.82
2023-07-24T06:50:51.266Z,8.27
2023-07-24T06:51:48.414Z,8.02
2023-07-24T06:52:45.403Z,8.50
2023-07-24T06:53:42.455Z,8.15
2023-07-24T06:54:39.613Z,7.50
2023-07-24T06:55:36.569Z,8.00
2023-07-24T06:56:33.662Z,8.70
2023-07-24T06:57:30.801Z,7.95
2023-07-24T06:58:27.852Z,8.10
2023-07-24T06:59:25.150Z,8.80
2023-07-24T07:00:22.324Z,7.85
2023-07-24T07:01:19.450Z,8.45
2023-07-24T07:02:16.600Z,7.68
2023-07-24T07:03:13.678Z,7.97
2023-07-24T07:04:10.858Z,8.48
2023-07-24T07:05:08.243Z,7.75
2023-07-24T07:06:05.335Z,8.70
2023-07-24T07:07:02.328Z,8.05
2023-07-24T07:07:59.367Z,7.50
2023-07-24T07:08:56.279Z,7.53
2023-07-24T07:09:53.287Z,10.48
2023-07-24T07:10:59.037Z,7.70
2023-07-24T07:11:56.097Z,8.23
2023-07-24T07:12:53.088Z,7.72
2023-07-24T07:13:50.495Z,7.65
2023-07-24T07:14:47.689Z,8.23
2023-07-24T07:15:44.757Z,7.70
2023-07-24T07:16:42.246Z,8.02
2023-07-24T07:17:39.421Z,8.38
2023-07-24T07:18:36.591Z,8.50
2023-07-24T07:19:33.728Z,8.02
2023-07-24T07:20:30.911Z,8.13
2023-07-24T07:21:28.082Z,8.15
2023-07-24T07:22:25.077Z,7.78
2023-07-24T07:23:23.043Z,7.70
2023-07-24T07:24:20.292Z,8.32
2023-07-24T07:25:17.354Z,8.00
2023-07-24T07:26:14.453Z,7.90
2023-07-24T07:27:11.494Z,7.57
2023-07-24T07:28:08.590Z,7.97
2023-07-24T07:29:05.769Z,7.80
2023-07-24T07:30:02.819Z,7.72
2023-07-24T07:30:59.906Z,8.27
2023-07-24T07:31:56.929Z,8.23
2023-07-24T07:32:53.980Z,7.78
2023-07-24T07:33:51.160Z,8.23
2023-07-24T07:34:48.329Z,8.40
2023-07-24T07:35:46.807Z,7.78
2023-07-24T07:36:43.867Z,9.85
2023-07-24T07:37:40.921Z,9.07
2023-07-24T07:38:38.912Z,8.18
2023-07-24T07:39:36.023Z,8.57
2023-07-24T07:40:33.058Z,7.90
2023-07-24T07:41:30.126Z,8.05
2023-07-24T07:42:27.200Z,8.07
2023-07-24T07:43:24.228Z,8.07
2023-07-24T07:44:21.236Z,8.68
2023-07-24T07:45:18.286Z,7.80
2023-07-24T07:46:15.243Z,8.38
2023-07-24T07:47:12.302Z,8.25
2023-07-24T07:48:09.335Z,8.32
2023-07-24T07:49:06.531Z,8.73
2023-07-24T07:50:04.147Z,8.93
2023-07-24T07:51:01.185Z,8.23
2023-07-24T07:51:58.368Z,7.93
2023-07-24T07:52:55.363Z,8.50
2023-07-24T07:53:52.454Z,8.43
2023-07-24T07:54:50.306Z,8.20
2023-07-24T07:55:47.366Z,7.87
2023-07-24T07:56:44.489Z,8.10
2023-07-24T07:57:41.522Z,8.20
2023-07-24T07:58:38.569Z,8.70
2023-07-24T07:59:36.417Z,8.20
2023-07-24T08:00:33.614Z,8.32
2023-07-24T08:01:31.988Z,8.02
2023-07-24T08:02:29.103Z,8.20
2023-07-24T08:03:26.267Z,9.02
2023-07-24T08:04:23.496Z,8.32
2023-07-24T08:05:21.612Z,8.27
2023-07-24T08:06:18.886Z,9.30
2023-07-24T08:07:15.910Z,8.18
2023-07-24T08:08:13.062Z,8.15
2023-07-24T08:09:10.006Z,8.15
2023-07-24T08:10:08.084Z,8.45
2023-07-24T08:11:08.722Z,8.35
2023-07-24T08:13:06.161Z,7.82
2023-07-24T08:14:03.209Z,8.65
2023-07-24T08:15:00.469Z,8.75
2023-07-24T08:15:57.540Z,9.00
2023-07-24T08:16:55.227Z,8.35
2023-07-24T08:17:52.427Z,8.82
2023-07-24T08:18:50.032Z,8.07
2023-07-24T08:19:47.057Z,8.52
2023-07-24T08:20:44.046Z,8.45
2023-07-24T08:21:41.779Z,8.93
2023-07-24T08:22:38.981Z,8.73
2023-07-24T08:23:35.979Z,8.40
2023-07-24T08:24:36.765Z,8.30
2023-07-24T08:25:33.864Z,8.60
2023-07-24T08:26:31.099Z,8.70
2023-07-24T08:27:28.425Z,8.52
2023-07-24T08:28:25.514Z,8.85
2023-07-24T08:29:22.851Z,8.95
2023-07-24T08:30:20.565Z,8.65
2023-07-24T08:31:17.606Z,8.55
2023-07-24T08:32:14.823Z,8.15
2023-07-24T08:33:12.199Z,8.90
2023-07-24T08:34:09.267Z,8.30
2023-07-24T08:35:06.964Z,8.57
2023-07-24T08:36:06.230Z,8.52
2023-07-24T08:37:03.209Z,9.07
2023-07-24T08:38:00.425Z,8.48
2023-07-24T08:38:57.485Z,9.20
2023-07-24T08:39:54.453Z,9.10
2023-07-24T08:41:02.049Z,8.10
2023-07-24T08:41:59.077Z,8.25
2023-07-24T08:42:56.349Z,8.75
2023-07-24T08:43:55.060Z,8.35
2023-07-24T08:44:53.333Z,8.73
2023-07-24T08:45:50.302Z,8.45
2023-07-24T08:46:48.727Z,8.10
2023-07-24T08:47:46.272Z,8.52
2023-07-24T08:48:44.192Z,8.90
2023-07-24T08:49:41.862Z,8.80
2023-07-24T08:50:38.902Z,8.63
2023-07-24T08:51:36.668Z,8.27
2023-07-24T08:52:36.327Z,8.65
2023-07-24T08:53:37.130Z,9.07
2023-07-24T08:54:34.136Z,9.07
2023-07-24T08:55:31.282Z,8.80
2023-07-24T08:56:28.821Z,8.40
2023-07-24T08:57:26.173Z,8.98
2023-07-24T08:58:23.447Z,8.52
2023-07-24T08:59:20.567Z,9.13
2023-07-24T09:00:17.899Z,8.50
2023-07-24T09:01:14.968Z,8.70
2023-07-24T09:02:12.061Z,9.70
2023-07-24T09:03:09.537Z,8.35
2023-07-24T09:04:06.687Z,8.48
2023-07-24T09:05:04.883Z,8.48
2023-07-24T09:06:03.005Z,8.57
2023-07-24T09:07:00.219Z,8.57
2023-07-24T09:07:57.235Z,8.90
2023-07-24T09:08:55.512Z,8.85
2023-07-24T09:09:52.644Z,8.98
2023-07-24T09:10:51.997Z,8.27
2023-07-24T09:11:55.132Z,8.73
2023-07-24T09:12:52.293Z,8.80
2023-07-24T09:15:06.464Z,8.95
2023-07-24T09:16:04.634Z,8.77
2023-07-24T09:17:09.021Z,8.48
2023-07-24T09:18:06.239Z,8.75
2023-07-24T09:19:11.270Z,8.40
2023-07-24T09:20:09.415Z,9.00
2023-07-24T09:21:06.357Z,8.82
2023-07-24T09:22:29.521Z,9.48
2023-07-24T09:23:29.633Z,8.23
2023-07-24T09:24:26.728Z,9.70
2023-07-24T09:25:33.611Z,8.93
2023-07-24T09:26:30.827Z,8.93
2023-07-24T09:27:30.104Z,8.93
2023-07-24T09:28:29.175Z,9.25
2023-07-24T09:29:32.840Z,9.23
2023-07-24T09:30:30.005Z,9.30
2023-07-24T09:31:37.352Z,8.48
2023-07-24T09:32:35.546Z,9.20
2023-07-24T09:33:40.095Z,9.25
2023-07-24T09:34:43.630Z,9.13
2023-07-24T09:35:40.744Z,8.43
2023-07-24T09:36:39.931Z,9.00
2023-07-24T09:37:36.987Z,9.80
2023-07-24T09:38:34.126Z,9.10
2023-07-24T09:39:31.194Z,8.98
2023-07-24T09:40:28.313Z,8.63
2023-07-24T09:41:29.362Z,8.95
2023-07-24T09:42:44.782Z,8.65
2023-07-24T09:43:45.766Z,8.88
2023-07-24T09:44:43.045Z,9.10
2023-07-24T09:45:46.059Z,8.85
2023-07-24T09:47:01.840Z,8.75
2023-07-24T09:48:06.319Z,8.80
2023-07-24T09:49:09.597Z,9.98
2023-07-24T09:50:07.760Z,9.23
2023-07-24T09:51:04.787Z,9.63
2023-07-24T09:52:04.772Z,9.18
2023-07-24T09:53:01.927Z,8.98
2023-07-24T09:54:16.633Z,9.82
2023-07-24T09:55:21.008Z,9.30
2023-07-24T09:56:18.984Z,9.57
2023-07-24T09:57:22.934Z,9.45
2023-07-24T09:58:20.484Z,8.95
2023-07-24T09:59:18.291Z,9.27
2023-07-24T10:00:16.050Z,9.32
2023-07-24T10:01:13.550Z,9.60
2023-07-24T10:02:12.415Z,9.48
2023-07-24T10:03:09.863Z,9.18
2023-07-24T10:04:07.701Z,9.25
2023-07-24T10:05:04.979Z,8.85
2023-07-24T10:06:02.400Z,8.98
2023-07-24T10:06:59.595Z,8.90
2023-07-24T10:07:56.931Z,8.73
2023-07-24T10:08:54.093Z,9.07
2023-07-24T10:09:52.374Z,9.25
2023-07-24T10:10:52.406Z,9.40
2023-07-24T10:11:49.400Z,8.45
2023-07-24T10:12:46.621Z,8.93
2023-07-24T10:13:43.902Z,9.48
2023-07-24T10:14:40.901Z,9.23
2023-07-24T10:15:39.010Z,8.38
2023-07-24T10:16:36.073Z,9.20
2023-07-24T10:17:40.679Z,8.80
2023-07-24T10:18:44.799Z,9.32
2023-07-24T10:19:44.394Z,9.55
2023-07-24T10:20:42.306Z,8.25
2023-07-24T10:21:47.201Z,9.15
2023-07-24T10:22:44.753Z,8.85
2023-07-24T10:23:47.874Z,9.45
2023-07-24T10:24:45.019Z,8.40
2023-07-24T10:25:42.089Z,8.55
2023-07-24T10:26:39.200Z,8.98
2023-07-24T10:27:47.035Z,9.02
2023-07-24T10:28:44.129Z,9.07
2023-07-24T10:29:41.245Z,8.35
2023-07-24T10:30:44.984Z,8.80
2023-07-24T10:31:42.336Z,8.48
2023-07-24T10:32:51.517Z,8.73
2023-07-24T10:33:51.374Z,9.10
2023-07-24T10:34:57.826Z,8.65
2023-07-24T10:35:55.800Z,8.60
2023-07-24T10:37:04.622Z,9.13
2023-07-24T10:38:03.152Z,8.90
2023-07-24T10:39:00.143Z,9.63
2023-07-24T10:39:57.953Z,9.02
2023-07-24T10:41:03.695Z,9.00
2023-07-24T10:42:07.455Z,8.60
2023-07-24T10:43:08.052Z,8.52
2023-07-24T10:44:05.233Z,8.50
2023-07-24T10:45:09.088Z,8.70
2023-07-24T10:46:06.265Z,8.10
2023-07-24T10:47:03.703Z,8.52
2023-07-24T10:48:00.729Z,8.18
2023-07-24T10:49:02.189Z,8.63
2023-07-24T10:49:59.483Z,8.35
2023-07-24T10:50:56.435Z,8.38
2023-07-24T10:51:57.925Z,8.80
2023-07-24T10:52:55.356Z,7.95
2023-07-24T10:53:52.447Z,8.63
2023-07-24T10:54:52.176Z,9.65
2023-07-24T10:55:49.491Z,9.65
2023-07-24T10:56:46.494Z,9.05
2023-07-24T10:57:43.479Z,9.35
2023-07-24T10:58:40.479Z,10.15
2023-07-24T10:59:39.067Z,8.55
2023-07-24T11:00:36.328Z,9.77
2023-07-24T11:01:34.739Z,9.75
2023-07-24T11:02:32.485Z,9.35
2023-07-24T11:03:29.551Z,9.10
2023-07-24T11:04:26.627Z,8.82
2023-07-24T11:05:24.288Z,9.50
2023-07-24T11:06:23.609Z,9.45
2023-07-24T11:07:20.835Z,8.70
2023-07-24T11:08:19.745Z,9.07
2023-07-24T11:09:16.757Z,8.88
2023-07-24T11:10:20.273Z,8.95
2023-07-24T11:11:18.648Z,8.88
2023-07-24T11:12:16.974Z,9.63
2023-07-24T11:13:13.922Z,9.88
2023-07-24T11:14:15.847Z,9.15
2023-07-24T11:15:13.685Z,9.05
2023-07-24T11:16:10.866Z,8.75
2023-07-24T11:17:07.943Z,8.65
2023-07-24T11:18:09.622Z,9.38
2023-07-24T11:19:06.644Z,9.00
2023-07-24T11:20:08.513Z,9.30
2023-07-24T11:21:07.023Z,8.70
2023-07-24T11:22:05.067Z,9.07
2023-07-24T11:23:02.078Z,9.43
2023-07-24T11:23:59.276Z,9.05
2023-07-24T11:24:58.500Z,9.20
2023-07-24T11:25:55.696Z,9.30
2023-07-24T11:26:53.940Z,9.05
2023-07-24T11:27:50.991Z,9.55
2023-07-24T11:28:48.030Z,9.60
2023-07-24T11:29:53.944Z,9.57
2023-07-24T11:30:52.942Z,9.63
2023-07-24T11:31:55.778Z,9.98
2023-07-24T11:32:53.180Z,9.23
2023-07-24T11:33:51.300Z,9.50
2023-07-24T11:34:49.818Z,9.52
2023-07-24T11:35:47.070Z,8.93
2023-07-24T11:36:44.085Z,9.27
2023-07-24T11:37:41.264Z,9.05
2023-07-24T11:38:40.207Z,9.90
2023-07-24T11:39:37.357Z,10.18
2023-07-24T11:40:36.740Z,8.77
2023-07-24T11:41:34.130Z,9.43
2023-07-24T11:42:31.909Z,9.43
2023-07-24T11:43:28.880Z,9.60
2023-07-24T11:44:29.596Z,10.30
2023-07-24T11:45:26.821Z,9.80
2023-07-24T11:46:28.267Z,9.68
2023-07-24T11:47:25.480Z,9.65
2023-07-24T11:48:24.700Z,9.63
2023-07-24T11:49:21.881Z,9.63
2023-07-24T11:50:19.060Z,9.20
2023-07-24T11:51:16.062Z,9.98
2023-07-24T11:52:13.172Z,9.13
2023-07-24T11:53:26.693Z,9.63
2023-07-24T11:54:23.765Z,10.20
2023-07-24T11:55:33.718Z,9.30
2023-07-24T11:56:31.047Z,9.25
2023-07-24T11:57:29.991Z,9.40
2023-07-24T11:58:28.290Z,9.20
2023-07-24T11:59:25.978Z,10.43
2023-07-24T12:00:24.105Z,9.32
2023-07-24T12:01:21.682Z,10.10
2023-07-24T12:02:18.672Z,9.75
2023-07-24T12:03:20.993Z,9.93
2023-07-24T12:04:18.805Z,9.30
2023-07-24T12:05:16.149Z,10.45
2023-07-24T12:06:19.679Z,9.65
2023-07-24T12:07:17.373Z,10.55
2023-07-24T12:08:15.794Z,9.82
2023-07-24T12:09:13.262Z,10.18
2023-07-24T12:10:10.831Z,9.32
2023-07-24T12:11:18.072Z,10.15
2023-07-24T12:12:17.963Z,9.70
2023-07-24T12:13:15.173Z,11.10
2023-07-24T12:14:13.560Z,10.45
2023-07-24T12:15:11.476Z,10.52
2023-07-24T12:16:08.549Z,10.50
2023-07-24T12:17:11.102Z,10.93
2023-07-24T12:18:08.479Z,10.25
2023-07-24T12:19:07.110Z,11.05
2023-07-24T12:20:07.388Z,10.18
2023-07-24T12:21:04.895Z,10.98
2023-07-24T12:22:05.057Z,10.50
2023-07-24T12:23:02.139Z,10.25
2023-07-24T12:23:59.278Z,10.65
2023-07-24T12:24:57.533Z,10.75
2023-07-24T12:25:55.952Z,10.32
2023-07-24T12:26:53.314Z,10.90
2023-07-24T12:27:50.433Z,10.35
2023-07-24T12:28:47.754Z,11.32
2023-07-24T12:29:45.063Z,10.75
2023-07-24T12:30:42.380Z,10.45
2023-07-24T12:31:39.570Z,11.27
2023-07-24T12:32:36.961Z,10.63
2023-07-24T12:33:34.467Z,11.88
2023-07-24T12:34:31.796Z,10.30
2023-07-24T12:35:29.345Z,11.00
2023-07-24T12:36:26.523Z,10.68
2023-07-24T12:37:23.736Z,10.80
2023-07-24T12:38:20.901Z,10.57
2023-07-24T12:39:18.714Z,11.90
2023-07-24T12:40:15.818Z,11.02
2023-07-24T12:41:13.158Z,11.18
2023-07-24T12:42:10.311Z,11.15
2023-07-24T12:43:07.407Z,10.93
2023-07-24T12:44:04.628Z,11.35
2023-07-24T12:45:04.017Z,10.70
2023-07-24T12:46:01.101Z,11.20
2023-07-24T12:47:00.765Z,12.37
2023-07-24T12:47:57.957Z,12.13
2023-07-24T12:48:54.981Z,10.93
2023-07-24T12:49:53.939Z,12.00
2023-07-24T12:50:51.155Z,10.55
2023-07-24T12:51:48.431Z,10.88
2023-07-24T12:52:46.234Z,11.10
2023-07-24T12:53:53.649Z,10.55
2023-07-24T12:55:02.212Z,11.93
2023-07-24T12:56:00.035Z,10.88